sensor_id;sensor_type;location;lat;lon;timestamp;P1;durP1;ratioP1;P2;durP2;ratioP2
63874;SDS011;51595;24.180;-110.296;2022-07-06T00:01:57;8.95;;;1.40;;
63874;SDS011;51595;24.180;-110.296;2022-07-06T00:04:23;5.88;;;1.40;;
63874;SDS011;51595;24.180;-110.296;2022-07-06T00:06:52;5.40;;;1.45;;
63874;SDS011;51595;24.180;-110.296;2022-07-06T00:09:19;5.72;;;1.60;;
63874;SDS011;51595;24.180;-110.296;2022-07-06T00:11:45;11.07;;;2.25;;
63874;SDS011;51595;24.180;-110.296;2022-07-06T00:14:12;7.78;;;1.30;;
63874;SDS011;51595;24.180;-110.296;2022-07-06T00:16:38;11.23;;;1.75;;
63874;SDS011;51595;24.180;-110.296;2022-07-06T00:19:05;5.60;;;1.10;;
63874;SDS011;51595;24.180;-110.296;2022-07-06T00:21:31;7.07;;;1.73;;
63874;SDS011;51595;24.180;-110.296;2022-07-06T00:23:58;3.88;;;1.20;;
63874;SDS011;51595;24.180;-110.296;2022-07-06T00:26:25;3.75;;;1.83;;
63874;SDS011;51595;24.180;-110.296;2022-07-06T00:28:51;5.63;;;1.23;;
63874;SDS011;51595;24.180;-110.296;2022-07-06T00:31:18;2.75;;;1.10;;
63874;SDS011;51595;24.180;-110.296;2022-07-06T00:33:44;6.00;;;1.60;;
63874;SDS011;51595;24.180;-110.296;2022-07-06T00:36:11;6.80;;;1.77;;
63874;SDS011;51595;24.180;-110.296;2022-07-06T00:38:37;5.18;;;1.38;;
63874;SDS011;51595;24.180;-110.296;2022-07-06T00:41:04;4.68;;;1.20;;
63874;SDS011;51595;24.180;-110.296;2022-07-06T00:43:46;4.78;;;1.13;;
63874;SDS011;51595;24.180;-110.296;2022-07-06T00:46:18;7.32;;;1.33;;
63874;SDS011;51595;24.180;-110.296;2022-07-06T00:48:44;7.75;;;1.17;;
63874;SDS011;51595;24.180;-110.296;2022-07-06T00:51:11;4.13;;;1.33;;
63874;SDS011;51595;24.180;-110.296;2022-07-06T00:53:38;4.53;;;1.35;;
63874;SDS011;51595;24.180;-110.296;2022-07-06T00:56:07;3.40;;;1.10;;
63874;SDS011;51595;24.180;-110.296;2022-07-06T00:58:35;3.47;;;1.20;;
63874;SDS011;51595;24.180;-110.296;2022-07-06T01:01:01;5.63;;;1.30;;
63874;SDS011;51595;24.180;-110.296;2022-07-06T01:03:28;5.95;;;1.27;;
63874;SDS011;51595;24.180;-110.296;2022-07-06T01:05:54;6.75;;;1.20;;
63874;SDS011;51595;24.180;-110.296;2022-07-06T01:08:21;4.50;;;1.33;;
63874;SDS011;51595;24.180;-110.296;2022-07-06T01:10:48;15.15;;;2.85;;
63874;SDS011;51595;24.180;-110.296;2022-07-06T01:13:14;17.30;;;2.22;;
63874;SDS011;51595;24.180;-110.296;2022-07-06T01:15:41;18.00;;;2.53;;
63874;SDS011;51595;24.180;-110.296;2022-07-06T01:18:09;15.27;;;2.40;;
63874;SDS011;51595;24.180;-110.296;2022-07-06T01:20:37;13.93;;;2.78;;
63874;SDS011;51595;24.180;-110.296;2022-07-06T01:23:03;16.77;;;3.75;;
63874;SDS011;51595;24.180;-110.296;2022-07-06T01:25:30;9.25;;;2.58;;
63874;SDS011;51595;24.180;-110.296;2022-07-06T01:27:57;13.40;;;3.25;;
63874;SDS011;51595;24.180;-110.296;2022-07-06T01:30:24;10.73;;;2.95;;
63874;SDS011;51595;24.180;-110.296;2022-07-06T01:32:50;14.68;;;3.15;;
63874;SDS011;51595;24.180;-110.296;2022-07-06T01:35:17;22.90;;;3.00;;
63874;SDS011;51595;24.180;-110.296;2022-07-06T01:37:44;12.38;;;2.90;;
63874;SDS011;51595;24.180;-110.296;2022-07-06T01:40:11;17.75;;;3.03;;
63874;SDS011;51595;24.180;-110.296;2022-07-06T01:42:38;16.50;;;3.28;;
63874;SDS011;51595;24.180;-110.296;2022-07-06T01:45:05;12.23;;;3.45;;
63874;SDS011;51595;24.180;-110.296;2022-07-06T01:47:33;13.18;;;3.17;;
63874;SDS011;51595;24.180;-110.296;2022-07-06T01:49:59;13.82;;;2.97;;
63874;SDS011;51595;24.180;-110.296;2022-07-06T01:52:27;17.38;;;4.30;;
63874;SDS011;51595;24.180;-110.296;2022-07-06T01:54:54;14.68;;;4.00;;
63874;SDS011;51595;24.180;-110.296;2022-07-06T01:57:21;12.25;;;3.25;;
63874;SDS011;51595;24.180;-110.296;2022-07-06T01:59:48;17.88;;;4.00;;
63874;SDS011;51595;24.180;-110.296;2022-07-06T02:02:15;16.60;;;3.78;;
63874;SDS011;51595;24.180;-110.296;2022-07-06T02:04:42;20.05;;;3.53;;
63874;SDS011;51595;24.180;-110.296;2022-07-06T02:07:09;11.07;;;3.35;;
63874;SDS011;51595;24.180;-110.296;2022-07-06T02:09:35;21.33;;;3.85;;
63874;SDS011;51595;24.180;-110.296;2022-07-06T02:12:01;14.50;;;3.72;;
63874;SDS011;51595;24.180;-110.296;2022-07-06T02:14:28;15.95;;;3.33;;
63874;SDS011;51595;24.180;-110.296;2022-07-06T02:16:55;16.80;;;3.50;;
63874;SDS011;51595;24.180;-110.296;2022-07-06T02:19:21;14.25;;;3.40;;
63874;SDS011;51595;24.180;-110.296;2022-07-06T02:21:48;16.10;;;3.63;;
63874;SDS011;51595;24.180;-110.296;2022-07-06T02:24:14;16.92;;;3.80;;
63874;SDS011;51595;24.180;-110.296;2022-07-06T02:26:41;12.35;;;3.28;;
63874;SDS011;51595;24.180;-110.296;2022-07-06T02:29:08;16.52;;;4.25;;
63874;SDS011;51595;24.180;-110.296;2022-07-06T02:31:34;18.35;;;3.78;;
63874;SDS011;51595;24.180;-110.296;2022-07-06T02:34:00;17.42;;;3.60;;
63874;SDS011;51595;24.180;-110.296;2022-07-06T02:36:27;16.65;;;3.75;;
63874;SDS011;51595;24.180;-110.296;2022-07-06T02:38:53;15.80;;;3.33;;
63874;SDS011;51595;24.180;-110.296;2022-07-06T02:41:20;13.52;;;2.70;;
63874;SDS011;51595;24.180;-110.296;2022-07-06T02:43:46;21.42;;;3.42;;
63874;SDS011;51595;24.180;-110.296;2022-07-06T02:46:13;14.55;;;3.05;;
63874;SDS011;51595;24.180;-110.296;2022-07-06T02:48:39;20.13;;;3.00;;
63874;SDS011;51595;24.180;-110.296;2022-07-06T02:51:06;24.80;;;3.13;;
63874;SDS011;51595;24.180;-110.296;2022-07-06T02:53:32;15.48;;;3.08;;
63874;SDS011;51595;24.180;-110.296;2022-07-06T02:55:58;26.10;;;3.63;;
63874;SDS011;51595;24.180;-110.296;2022-07-06T02:58:25;14.98;;;3.42;;
63874;SDS011;51595;24.180;-110.296;2022-07-06T03:00:51;22.02;;;5.05;;
63874;SDS011;51595;24.180;-110.296;2022-07-06T03:03:18;17.10;;;3.20;;
63874;SDS011;51595;24.180;-110.296;2022-07-06T03:05:44;18.75;;;3.83;;
63874;SDS011;51595;24.180;-110.296;2022-07-06T03:08:12;25.77;;;4.13;;
63874;SDS011;51595;24.180;-110.296;2022-07-06T03:10:38;23.75;;;3.30;;
63874;SDS011;51595;24.180;-110.296;2022-07-06T03:13:05;20.10;;;3.65;;
63874;SDS011;51595;24.180;-110.296;2022-07-06T03:15:31;26.52;;;4.35;;
63874;SDS011;51595;24.180;-110.296;2022-07-06T03:17:58;17.75;;;3.92;;
63874;SDS011;51595;24.180;-110.296;2022-07-06T03:20:24;17.67;;;3.92;;
63874;SDS011;51595;24.180;-110.296;2022-07-06T03:22:51;19.17;;;3.50;;
63874;SDS011;51595;24.180;-110.296;2022-07-06T03:25:17;24.30;;;4.00;;
63874;SDS011;51595;24.180;-110.296;2022-07-06T03:27:43;21.13;;;4.00;;
63874;SDS011;51595;24.180;-110.296;2022-07-06T03:30:10;16.85;;;4.30;;
63874;SDS011;51595;24.180;-110.296;2022-07-06T03:32:37;21.27;;;3.90;;
63874;SDS011;51595;24.180;-110.296;2022-07-06T03:35:03;19.88;;;4.22;;
63874;SDS011;51595;24.180;-110.296;2022-07-06T03:37:32;20.15;;;3.67;;
63874;SDS011;51595;24.180;-110.296;2022-07-06T03:39:58;22.05;;;4.30;;
63874;SDS011;51595;24.180;-110.296;2022-07-06T03:42:25;18.85;;;4.13;;
63874;SDS011;51595;24.180;-110.296;2022-07-06T03:44:51;23.20;;;4.22;;
63874;SDS011;51595;24.180;-110.296;2022-07-06T03:47:17;21.95;;;4.35;;
63874;SDS011;51595;24.180;-110.296;2022-07-06T03:49:44;21.30;;;3.80;;
63874;SDS011;51595;24.180;-110.296;2022-07-06T03:52:10;16.23;;;3.53;;
63874;SDS011;51595;24.180;-110.296;2022-07-06T03:54:37;20.58;;;3.50;;
63874;SDS011;51595;24.180;-110.296;2022-07-06T03:57:03;22.17;;;4.43;;
63874;SDS011;51595;24.180;-110.296;2022-07-06T03:59:30;22.63;;;4.22;;
63874;SDS011;51595;24.180;-110.296;2022-07-06T04:01:56;21.77;;;3.90;;
63874;SDS011;51595;24.180;-110.296;2022-07-06T04:04:23;23.33;;;4.38;;
63874;SDS011;51595;24.180;-110.296;2022-07-06T04:06:49;25.40;;;4.65;;
63874;SDS011;51595;24.180;-110.296;2022-07-06T04:09:15;19.58;;;4.03;;
63874;SDS011;51595;24.180;-110.296;2022-07-06T04:11:42;20.65;;;3.63;;
63874;SDS011;51595;24.180;-110.296;2022-07-06T04:14:08;30.40;;;4.20;;
63874;SDS011;51595;24.180;-110.296;2022-07-06T04:16:35;19.77;;;3.67;;
63874;SDS011;51595;24.180;-110.296;2022-07-06T04:19:01;22.17;;;3.90;;
63874;SDS011;51595;24.180;-110.296;2022-07-06T04:21:28;27.38;;;4.70;;
63874;SDS011;51595;24.180;-110.296;2022-07-06T04:23:54;18.33;;;3.88;;
63874;SDS011;51595;24.180;-110.296;2022-07-06T04:26:26;26.55;;;4.75;;
63874;SDS011;51595;24.180;-110.296;2022-07-06T04:28:53;16.83;;;3.97;;
63874;SDS011;51595;24.180;-110.296;2022-07-06T04:31:19;16.10;;;3.25;;
63874;SDS011;51595;24.180;-110.296;2022-07-06T04:33:46;21.33;;;3.97;;
63874;SDS011;51595;24.180;-110.296;2022-07-06T04:36:14;17.70;;;3.47;;
63874;SDS011;51595;24.180;-110.296;2022-07-06T04:38:46;14.80;;;2.83;;
63874;SDS011;51595;24.180;-110.296;2022-07-06T04:41:13;20.70;;;3.42;;
63874;SDS011;51595;24.180;-110.296;2022-07-06T04:43:39;13.30;;;2.83;;
63874;SDS011;51595;24.180;-110.296;2022-07-06T04:46:06;19.02;;;2.95;;
63874;SDS011;51595;24.180;-110.296;2022-07-06T04:48:33;12.98;;;2.33;;
63874;SDS011;51595;24.180;-110.296;2022-07-06T04:51:04;16.75;;;2.83;;
63874;SDS011;51595;24.180;-110.296;2022-07-06T04:53:33;15.95;;;3.08;;
63874;SDS011;51595;24.180;-110.296;2022-07-06T04:56:02;13.18;;;2.83;;
63874;SDS011;51595;24.180;-110.296;2022-07-06T04:58:29;16.15;;;2.90;;
63874;SDS011;51595;24.180;-110.296;2022-07-06T05:00:55;17.08;;;3.17;;
63874;SDS011;51595;24.180;-110.296;2022-07-06T05:03:22;13.77;;;2.70;;
63874;SDS011;51595;24.180;-110.296;2022-07-06T05:05:52;12.60;;;3.05;;
63874;SDS011;51595;24.180;-110.296;2022-07-06T05:08:22;19.23;;;3.33;;
63874;SDS011;51595;24.180;-110.296;2022-07-06T05:10:48;16.63;;;2.63;;
63874;SDS011;51595;24.180;-110.296;2022-07-06T05:13:17;16.98;;;3.13;;
63874;SDS011;51595;24.180;-110.296;2022-07-06T05:15:43;20.02;;;2.95;;
63874;SDS011;51595;24.180;-110.296;2022-07-06T05:18:10;16.02;;;3.28;;
63874;SDS011;51595;24.180;-110.296;2022-07-06T05:20:36;16.05;;;3.10;;
63874;SDS011;51595;24.180;-110.296;2022-07-06T05:23:03;10.68;;;2.80;;
63874;SDS011;51595;24.180;-110.296;2022-07-06T05:25:30;14.80;;;2.85;;
63874;SDS011;51595;24.180;-110.296;2022-07-06T05:27:58;10.93;;;2.80;;
63874;SDS011;51595;24.180;-110.296;2022-07-06T05:30:25;14.38;;;2.72;;
63874;SDS011;51595;24.180;-110.296;2022-07-06T05:32:52;16.13;;;2.85;;
63874;SDS011;51595;24.180;-110.296;2022-07-06T05:35:18;13.18;;;2.80;;
63874;SDS011;51595;24.180;-110.296;2022-07-06T05:37:44;14.73;;;2.58;;
63874;SDS011;51595;24.180;-110.296;2022-07-06T05:40:11;17.85;;;2.50;;
63874;SDS011;51595;24.180;-110.296;2022-07-06T05:42:37;13.23;;;2.75;;
63874;SDS011;51595;24.180;-110.296;2022-07-06T05:45:04;12.65;;;3.35;;
63874;SDS011;51595;24.180;-110.296;2022-07-06T05:47:31;11.20;;;2.40;;
63874;SDS011;51595;24.180;-110.296;2022-07-06T05:50:16;13.73;;;2.80;;
63874;SDS011;51595;24.180;-110.296;2022-07-06T05:52:44;12.20;;;2.47;;
63874;SDS011;51595;24.180;-110.296;2022-07-06T05:55:20;12.65;;;2.20;;
63874;SDS011;51595;24.180;-110.296;2022-07-06T05:57:46;17.63;;;2.35;;
63874;SDS011;51595;24.180;-110.296;2022-07-06T06:00:12;10.05;;;2.22;;
63874;SDS011;51595;24.180;-110.296;2022-07-06T06:02:39;13.88;;;2.33;;
63874;SDS011;51595;24.180;-110.296;2022-07-06T06:05:07;12.15;;;2.55;;
63874;SDS011;51595;24.180;-110.296;2022-07-06T06:07:35;12.95;;;2.42;;
63874;SDS011;51595;24.180;-110.296;2022-07-06T06:10:03;11.10;;;2.50;;
63874;SDS011;51595;24.180;-110.296;2022-07-06T06:12:31;18.77;;;2.40;;
63874;SDS011;51595;24.180;-110.296;2022-07-06T06:14:57;13.77;;;2.30;;
63874;SDS011;51595;24.180;-110.296;2022-07-06T06:17:24;10.10;;;2.60;;
63874;SDS011;51595;24.180;-110.296;2022-07-06T06:19:50;11.75;;;2.40;;
63874;SDS011;51595;24.180;-110.296;2022-07-06T06:22:17;11.45;;;2.30;;
63874;SDS011;51595;24.180;-110.296;2022-07-06T06:24:43;12.10;;;2.40;;
63874;SDS011;51595;24.180;-110.296;2022-07-06T06:27:11;13.02;;;2.63;;
63874;SDS011;51595;24.180;-110.296;2022-07-06T06:29:37;13.98;;;2.30;;
63874;SDS011;51595;24.180;-110.296;2022-07-06T06:32:04;14.07;;;3.03;;
63874;SDS011;51595;24.180;-110.296;2022-07-06T06:34:31;10.05;;;2.40;;
63874;SDS011;51595;24.180;-110.296;2022-07-06T06:36:57;18.27;;;2.95;;
63874;SDS011;51595;24.180;-110.296;2022-07-06T06:39:24;14.80;;;2.90;;
63874;SDS011;51595;24.180;-110.296;2022-07-06T06:41:50;17.25;;;3.08;;
63874;SDS011;51595;24.180;-110.296;2022-07-06T06:44:17;12.10;;;2.47;;
63874;SDS011;51595;24.180;-110.296;2022-07-06T06:46:43;13.48;;;2.45;;
63874;SDS011;51595;24.180;-110.296;2022-07-06T06:49:10;14.30;;;2.85;;
63874;SDS011;51595;24.180;-110.296;2022-07-06T06:51:36;13.98;;;2.85;;
63874;SDS011;51595;24.180;-110.296;2022-07-06T06:54:04;13.88;;;2.80;;
63874;SDS011;51595;24.180;-110.296;2022-07-06T06:56:30;15.77;;;2.60;;
63874;SDS011;51595;24.180;-110.296;2022-07-06T06:58:57;10.63;;;2.53;;
63874;SDS011;51595;24.180;-110.296;2022-07-06T07:01:23;12.80;;;2.88;;
63874;SDS011;51595;24.180;-110.296;2022-07-06T07:03:50;12.07;;;3.00;;
63874;SDS011;51595;24.180;-110.296;2022-07-06T07:06:17;16.63;;;2.90;;
63874;SDS011;51595;24.180;-110.296;2022-07-06T07:08:43;15.65;;;2.72;;
63874;SDS011;51595;24.180;-110.296;2022-07-06T07:11:10;15.82;;;2.95;;
63874;SDS011;51595;24.180;-110.296;2022-07-06T07:13:36;12.95;;;2.60;;
63874;SDS011;51595;24.180;-110.296;2022-07-06T07:16:03;15.38;;;2.97;;
63874;SDS011;51595;24.180;-110.296;2022-07-06T07:18:29;17.65;;;3.10;;
63874;SDS011;51595;24.180;-110.296;2022-07-06T07:20:56;19.67;;;3.80;;
63874;SDS011;51595;24.180;-110.296;2022-07-06T07:23:23;15.13;;;4.88;;
63874;SDS011;51595;24.180;-110.296;2022-07-06T07:25:49;17.75;;;4.22;;
63874;SDS011;51595;24.180;-110.296;2022-07-06T07:28:16;17.08;;;3.28;;
63874;SDS011;51595;24.180;-110.296;2022-07-06T07:30:42;21.15;;;4.13;;
63874;SDS011;51595;24.180;-110.296;2022-07-06T07:33:09;16.65;;;3.47;;
63874;SDS011;51595;24.180;-110.296;2022-07-06T07:35:35;14.40;;;3.00;;
63874;SDS011;51595;24.180;-110.296;2022-07-06T07:38:02;14.85;;;3.50;;
63874;SDS011;51595;24.180;-110.296;2022-07-06T07:40:28;16.67;;;3.92;;
63874;SDS011;51595;24.180;-110.296;2022-07-06T07:42:55;19.48;;;3.50;;
63874;SDS011;51595;24.180;-110.296;2022-07-06T07:45:22;13.40;;;3.00;;
63874;SDS011;51595;24.180;-110.296;2022-07-06T07:47:48;22.85;;;3.78;;
63874;SDS011;51595;24.180;-110.296;2022-07-06T07:50:14;21.40;;;3.58;;
63874;SDS011;51595;24.180;-110.296;2022-07-06T07:52:41;17.88;;;3.50;;
63874;SDS011;51595;24.180;-110.296;2022-07-06T07:55:07;20.23;;;3.63;;
63874;SDS011;51595;24.180;-110.296;2022-07-06T07:57:34;19.67;;;4.30;;
63874;SDS011;51595;24.180;-110.296;2022-07-06T08:00:01;19.63;;;4.07;;
63874;SDS011;51595;24.180;-110.296;2022-07-06T08:02:28;22.15;;;4.28;;
63874;SDS011;51595;24.180;-110.296;2022-07-06T08:04:55;17.73;;;3.75;;
63874;SDS011;51595;24.180;-110.296;2022-07-06T08:07:21;14.60;;;3.63;;
63874;SDS011;51595;24.180;-110.296;2022-07-06T08:09:47;17.98;;;3.75;;
63874;SDS011;51595;24.180;-110.296;2022-07-06T08:12:14;26.38;;;3.80;;
63874;SDS011;51595;24.180;-110.296;2022-07-06T08:14:40;16.13;;;3.13;;
63874;SDS011;51595;24.180;-110.296;2022-07-06T08:17:07;20.60;;;3.83;;
63874;SDS011;51595;24.180;-110.296;2022-07-06T08:19:33;18.58;;;4.57;;
63874;SDS011;51595;24.180;-110.296;2022-07-06T08:22:00;15.15;;;3.75;;
63874;SDS011;51595;24.180;-110.296;2022-07-06T08:24:33;20.33;;;3.67;;
63874;SDS011;51595;24.180;-110.296;2022-07-06T08:27:00;17.58;;;3.85;;
63874;SDS011;51595;24.180;-110.296;2022-07-06T08:29:26;18.00;;;3.88;;
63874;SDS011;51595;24.180;-110.296;2022-07-06T08:31:53;17.13;;;4.03;;
63874;SDS011;51595;24.180;-110.296;2022-07-06T08:34:19;23.08;;;3.53;;
63874;SDS011;51595;24.180;-110.296;2022-07-06T08:36:45;20.95;;;4.28;;
63874;SDS011;51595;24.180;-110.296;2022-07-06T08:39:12;12.05;;;3.63;;
63874;SDS011;51595;24.180;-110.296;2022-07-06T08:41:38;20.15;;;3.90;;
63874;SDS011;51595;24.180;-110.296;2022-07-06T08:44:08;22.80;;;4.53;;
63874;SDS011;51595;24.180;-110.296;2022-07-06T08:46:38;17.33;;;3.60;;
63874;SDS011;51595;24.180;-110.296;2022-07-06T08:49:06;17.77;;;3.53;;
63874;SDS011;51595;24.180;-110.296;2022-07-06T08:51:37;20.75;;;4.20;;
63874;SDS011;51595;24.180;-110.296;2022-07-06T08:54:03;16.67;;;3.50;;
63874;SDS011;51595;24.180;-110.296;2022-07-06T08:56:30;20.55;;;3.55;;
63874;SDS011;51595;24.180;-110.296;2022-07-06T08:58:57;16.35;;;3.72;;
63874;SDS011;51595;24.180;-110.296;2022-07-06T09:01:24;24.73;;;4.10;;
63874;SDS011;51595;24.180;-110.296;2022-07-06T09:03:52;22.30;;;4.15;;
63874;SDS011;51595;24.180;-110.296;2022-07-06T09:06:25;21.35;;;3.78;;
63874;SDS011;51595;24.180;-110.296;2022-07-06T09:08:55;22.75;;;3.90;;
63874;SDS011;51595;24.180;-110.296;2022-07-06T09:11:23;22.30;;;3.97;;
63874;SDS011;51595;24.180;-110.296;2022-07-06T09:13:53;14.73;;;3.20;;
63874;SDS011;51595;24.180;-110.296;2022-07-06T09:16:25;19.05;;;3.42;;
63874;SDS011;51595;24.180;-110.296;2022-07-06T09:18:53;18.80;;;4.72;;
63874;SDS011;51595;24.180;-110.296;2022-07-06T09:21:27;18.80;;;3.28;;
63874;SDS011;51595;24.180;-110.296;2022-07-06T09:24:00;21.20;;;3.80;;
63874;SDS011;51595;24.180;-110.296;2022-07-06T09:26:30;15.27;;;3.53;;
63874;SDS011;51595;24.180;-110.296;2022-07-06T09:28:57;22.63;;;4.70;;
63874;SDS011;51595;24.180;-110.296;2022-07-06T09:31:26;16.25;;;3.55;;
63874;SDS011;51595;24.180;-110.296;2022-07-06T09:34:00;19.58;;;3.65;;
63874;SDS011;51595;24.180;-110.296;2022-07-06T09:36:40;23.67;;;3.80;;
63874;SDS011;51595;24.180;-110.296;2022-07-06T09:39:31;21.80;;;3.92;;
63874;SDS011;51595;24.180;-110.296;2022-07-06T09:41:57;22.63;;;5.15;;
63874;SDS011;51595;24.180;-110.296;2022-07-06T09:44:32;22.80;;;4.68;;
63874;SDS011;51595;24.180;-110.296;2022-07-06T09:47:06;17.85;;;3.70;;
63874;SDS011;51595;24.180;-110.296;2022-07-06T09:49:39;20.83;;;3.92;;
63874;SDS011;51595;24.180;-110.296;2022-07-06T09:52:09;18.98;;;3.97;;
63874;SDS011;51595;24.180;-110.296;2022-07-06T09:54:36;16.00;;;3.83;;
63874;SDS011;51595;24.180;-110.296;2022-07-06T09:57:04;22.88;;;3.95;;
63874;SDS011;51595;24.180;-110.296;2022-07-06T09:59:31;18.85;;;3.63;;
63874;SDS011;51595;24.180;-110.296;2022-07-06T10:02:01;20.52;;;3.63;;
63874;SDS011;51595;24.180;-110.296;2022-07-06T10:04:29;20.40;;;3.67;;
63874;SDS011;51595;24.180;-110.296;2022-07-06T10:06:57;16.10;;;4.00;;
63874;SDS011;51595;24.180;-110.296;2022-07-06T10:09:25;13.35;;;3.35;;
63874;SDS011;51595;24.180;-110.296;2022-07-06T10:11:59;14.35;;;2.90;;
63874;SDS011;51595;24.180;-110.296;2022-07-06T10:14:28;14.43;;;3.20;;
63874;SDS011;51595;24.180;-110.296;2022-07-06T10:16:56;21.70;;;4.20;;
63874;SDS011;51595;24.180;-110.296;2022-07-06T10:19:24;16.42;;;3.65;;
63874;SDS011;51595;24.180;-110.296;2022-07-06T10:21:52;21.88;;;3.47;;
63874;SDS011;51595;24.180;-110.296;2022-07-06T10:24:19;16.92;;;3.45;;
63874;SDS011;51595;24.180;-110.296;2022-07-06T10:26:47;14.35;;;2.85;;
63874;SDS011;51595;24.180;-110.296;2022-07-06T10:29:14;16.55;;;3.92;;
63874;SDS011;51595;24.180;-110.296;2022-07-06T10:31:43;16.70;;;3.63;;
63874;SDS011;51595;24.180;-110.296;2022-07-06T10:34:11;14.85;;;2.88;;
63874;SDS011;51595;24.180;-110.296;2022-07-06T10:36:40;19.13;;;3.85;;
63874;SDS011;51595;24.180;-110.296;2022-07-06T10:39:08;19.13;;;3.80;;
63874;SDS011;51595;24.180;-110.296;2022-07-06T10:41:54;16.73;;;3.20;;
63874;SDS011;51595;24.180;-110.296;2022-07-06T10:44:22;11.60;;;2.83;;
63874;SDS011;51595;24.180;-110.296;2022-07-06T10:46:57;18.85;;;3.72;;
63874;SDS011;51595;24.180;-110.296;2022-07-06T10:49:24;16.20;;;3.30;;
63874;SDS011;51595;24.180;-110.296;2022-07-06T10:51:52;12.10;;;3.38;;
63874;SDS011;51595;24.180;-110.296;2022-07-06T10:54:21;16.45;;;3.60;;
63874;SDS011;51595;24.180;-110.296;2022-07-06T10:56:50;17.83;;;3.80;;
63874;SDS011;51595;24.180;-110.296;2022-07-06T10:59:26;19.50;;;3.65;;
63874;SDS011;51595;24.180;-110.296;2022-07-06T11:04:42;19.17;;;4.07;;
63874;SDS011;51595;24.180;-110.296;2022-07-06T11:07:13;13.38;;;3.28;;
63874;SDS011;51595;24.180;-110.296;2022-07-06T11:09:56;17.63;;;3.45;;
63874;SDS011;51595;24.180;-110.296;2022-07-06T11:12:24;21.33;;;4.15;;
63874;SDS011;51595;24.180;-110.296;2022-07-06T11:14:51;17.65;;;4.00;;
63874;SDS011;51595;24.180;-110.296;2022-07-06T11:17:19;13.07;;;3.50;;
63874;SDS011;51595;24.180;-110.296;2022-07-06T11:22:22;14.50;;;3.47;;
63874;SDS011;51595;24.180;-110.296;2022-07-06T11:24:50;11.88;;;3.28;;
63874;SDS011;51595;24.180;-110.296;2022-07-06T11:27:24;14.55;;;3.08;;
63874;SDS011;51595;24.180;-110.296;2022-07-06T11:29:50;14.77;;;3.55;;
63874;SDS011;51595;24.180;-110.296;2022-07-06T11:32:23;11.75;;;3.42;;
63874;SDS011;51595;24.180;-110.296;2022-07-06T11:34:52;14.18;;;3.25;;
63874;SDS011;51595;24.180;-110.296;2022-07-06T11:37:19;11.77;;;3.35;;
63874;SDS011;51595;24.180;-110.296;2022-07-06T11:39:48;17.90;;;3.60;;
63874;SDS011;51595;24.180;-110.296;2022-07-06T11:42:15;14.55;;;3.25;;
63874;SDS011;51595;24.180;-110.296;2022-07-06T11:44:43;17.80;;;4.20;;
63874;SDS011;51595;24.180;-110.296;2022-07-06T11:47:10;16.73;;;4.15;;
63874;SDS011;51595;24.180;-110.296;2022-07-06T11:49:38;13.85;;;3.65;;
63874;SDS011;51595;24.180;-110.296;2022-07-06T11:52:09;11.00;;;3.17;;
63874;SDS011;51595;24.180;-110.296;2022-07-06T11:54:37;14.77;;;3.45;;
63874;SDS011;51595;24.180;-110.296;2022-07-06T11:57:07;15.35;;;3.55;;
63874;SDS011;51595;24.180;-110.296;2022-07-06T11:59:36;11.45;;;2.90;;
63874;SDS011;51595;24.180;-110.296;2022-07-06T12:02:04;11.32;;;2.83;;
63874;SDS011;51595;24.180;-110.296;2022-07-06T12:04:32;17.55;;;3.38;;
63874;SDS011;51595;24.180;-110.296;2022-07-06T12:07:03;12.55;;;2.95;;
63874;SDS011;51595;24.180;-110.296;2022-07-06T12:09:33;12.60;;;3.22;;
63874;SDS011;51595;24.180;-110.296;2022-07-06T12:12:01;19.02;;;3.22;;
63874;SDS011;51595;24.180;-110.296;2022-07-06T12:14:28;13.80;;;3.05;;
63874;SDS011;51595;24.180;-110.296;2022-07-06T12:16:56;12.48;;;2.88;;
63874;SDS011;51595;24.180;-110.296;2022-07-06T12:19:32;14.40;;;2.97;;
63874;SDS011;51595;24.180;-110.296;2022-07-06T12:21:59;13.20;;;3.17;;
63874;SDS011;51595;24.180;-110.296;2022-07-06T12:24:28;18.65;;;3.60;;
63874;SDS011;51595;24.180;-110.296;2022-07-06T12:26:58;20.17;;;3.33;;
63874;SDS011;51595;24.180;-110.296;2022-07-06T12:29:37;17.20;;;2.83;;
63874;SDS011;51595;24.180;-110.296;2022-07-06T12:32:04;22.55;;;3.40;;
63874;SDS011;51595;24.180;-110.296;2022-07-06T12:34:31;15.43;;;3.40;;
63874;SDS011;51595;24.180;-110.296;2022-07-06T12:37:05;16.02;;;3.33;;
63874;SDS011;51595;24.180;-110.296;2022-07-06T12:39:39;16.17;;;3.25;;
63874;SDS011;51595;24.180;-110.296;2022-07-06T12:42:07;13.68;;;2.95;;
63874;SDS011;51595;24.180;-110.296;2022-07-06T12:44:41;12.35;;;3.22;;
63874;SDS011;51595;24.180;-110.296;2022-07-06T12:47:21;14.15;;;2.78;;
63874;SDS011;51595;24.180;-110.296;2022-07-06T12:49:49;16.95;;;2.85;;
63874;SDS011;51595;24.180;-110.296;2022-07-06T12:52:34;14.00;;;2.77;;
63874;SDS011;51595;24.180;-110.296;2022-07-06T12:55:02;12.90;;;3.45;;
63874;SDS011;51595;24.180;-110.296;2022-07-06T12:57:36;9.73;;;2.78;;
63874;SDS011;51595;24.180;-110.296;2022-07-06T13:00:12;10.88;;;2.85;;
63874;SDS011;51595;24.180;-110.296;2022-07-06T13:02:43;12.43;;;2.75;;
63874;SDS011;51595;24.180;-110.296;2022-07-06T13:05:13;8.48;;;2.40;;
63874;SDS011;51595;24.180;-110.296;2022-07-06T13:07:44;11.25;;;2.30;;
63874;SDS011;51595;24.180;-110.296;2022-07-06T13:10:12;12.13;;;2.58;;
63874;SDS011;51595;24.180;-110.296;2022-07-06T13:12:40;8.05;;;2.38;;
63874;SDS011;51595;24.180;-110.296;2022-07-06T13:15:07;11.65;;;2.35;;
63874;SDS011;51595;24.180;-110.296;2022-07-06T13:17:35;12.27;;;2.97;;
63874;SDS011;51595;24.180;-110.296;2022-07-06T13:20:05;6.90;;;1.98;;
63874;SDS011;51595;24.180;-110.296;2022-07-06T13:22:36;8.45;;;2.08;;
63874;SDS011;51595;24.180;-110.296;2022-07-06T13:25:03;14.98;;;3.78;;
63874;SDS011;51595;24.180;-110.296;2022-07-06T13:27:29;20.00;;;3.58;;
63874;SDS011;51595;24.180;-110.296;2022-07-06T13:29:56;16.48;;;3.22;;
63874;SDS011;51595;24.180;-110.296;2022-07-06T13:32:23;17.45;;;3.17;;
63874;SDS011;51595;24.180;-110.296;2022-07-06T13:34:49;25.40;;;3.75;;
63874;SDS011;51595;24.180;-110.296;2022-07-06T13:37:15;24.23;;;3.30;;
63874;SDS011;51595;24.180;-110.296;2022-07-06T13:39:46;22.35;;;3.17;;
63874;SDS011;51595;24.180;-110.296;2022-07-06T13:42:12;18.65;;;2.70;;
63874;SDS011;51595;24.180;-110.296;2022-07-06T13:44:40;23.25;;;4.38;;
63874;SDS011;51595;24.180;-110.296;2022-07-06T13:47:07;15.98;;;2.78;;
63874;SDS011;51595;24.180;-110.296;2022-07-06T13:49:33;24.20;;;3.40;;
63874;SDS011;51595;24.180;-110.296;2022-07-06T13:51:59;22.90;;;3.58;;
63874;SDS011;51595;24.180;-110.296;2022-07-06T13:54:29;30.10;;;3.03;;
63874;SDS011;51595;24.180;-110.296;2022-07-06T13:56:56;26.58;;;4.13;;
63874;SDS011;51595;24.180;-110.296;2022-07-06T13:59:22;25.20;;;3.97;;
63874;SDS011;51595;24.180;-110.296;2022-07-06T14:01:49;34.00;;;3.97;;
63874;SDS011;51595;24.180;-110.296;2022-07-06T14:04:15;30.08;;;4.25;;
63874;SDS011;51595;24.180;-110.296;2022-07-06T14:06:42;34.22;;;4.13;;
63874;SDS011;51595;24.180;-110.296;2022-07-06T14:09:09;24.00;;;3.40;;